Time;durP1;ratioP1;P1;durP2;ratioP2;P2;SDS_P1;SDS_P2;PMS_P1;PMS_P2;Temp;Humidity;BMP_temperature;BMP_pressure;BME280_temperature;BME280_humidity;BME280_pressure;Samples;Min_cycle;Max_cycle;Signal;HPM_P1;HPM_P2
2021/04/27 00:02:14;;;;;;;4.78;2.95;;;8.70;36.60;;;;;;5092582;28;20232;-78
2021/04/27 00:04:41;;;;;;;4.47;3.00;;;8.80;36.70;;;;;;5105989;28;20569;-78
2021/04/27 00:07:07;;;;;;;10.00;2.65;;;8.70;36.50;;;;;;5091559;28;20202;-78
2021/04/27 00:09:34;;;;;;;4.57;3.17;;;8.60;36.10;;;;;;5105711;28;20218;-78
2021/04/27 00:12:00;;;;;;;3.88;3.33;;;8.60;36.50;;;;;;5109871;28;20194;-78
2021/04/27 00:14:27;;;;;;;3.53;2.58;;;8.60;36.40;;;;;;5102332;28;20273;-78
2021/04/27 00:16:54;;;;;;;3.35;3.05;;;8.60;37.20;;;;;;5109596;28;20244;-78
2021/04/27 00:19:20;;;;;;;5.15;2.75;;;8.50;36.80;;;;;;5103712;28;20240;-78
2021/04/27 00:21:47;;;;;;;4.15;2.95;;;8.50;37.20;;;;;;5090138;28;20298;-78
2021/04/27 00:24:14;;;;;;;5.35;2.63;;;8.30;36.90;;;;;;5094303;28;20255;-78
2021/04/27 00:26:40;;;;;;;5.43;3.05;;;8.10;37.50;;;;;;5111199;28;20271;-78
2021/04/27 00:29:07;;;;;;;4.80;2.80;;;8.00;38.60;;;;;;5100825;28;20214;-78
2021/04/27 00:31:34;;;;;;;3.60;2.97;;;7.90;38.60;;;;;;5091387;28;20476;-77
2021/04/27 00:34:01;;;;;;;3.38;3.08;;;7.80;39.20;;;;;;5086819;28;20242;-78
2021/04/27 00:36:28;;;;;;;3.17;2.92;;;7.80;39.20;;;;;;5081055;28;20229;-78
2021/04/27 00:38:55;;;;;;;3.55;3.22;;;7.80;39.40;;;;;;5091106;28;20285;-77
2021/04/27 00:41:22;;;;;;;4.75;3.42;;;7.80;39.50;;;;;;5109192;28;20584;-78
2021/04/27 00:43:48;;;;;;;3.90;3.10;;;7.60;39.70;;;;;;5109344;28;20237;-78
2021/04/27 00:46:15;;;;;;;6.85;3.13;;;7.50;40.00;;;;;;5091776;28;20233;-78
2021/04/27 00:48:42;;;;;;;5.50;2.20;;;7.40;40.50;;;;;;5109975;28;20202;-78
2021/04/27 00:51:08;;;;;;;8.38;2.80;;;7.30;41.00;;;;;;5098179;28;20241;-78
2021/04/27 00:53:35;;;;;;;3.05;2.50;;;7.30;41.50;;;;;;5090530;28;20621;-78
2021/04/27 00:56:01;;;;;;;3.42;2.95;;;7.30;41.60;;;;;;5107254;28;20205;-78
2021/04/27 00:58:28;;;;;;;4.32;3.00;;;7.00;41.80;;;;;;5099583;28;20202;-78
2021/04/27 01:00:55;;;;;;;4.70;3.20;;;6.90;42.10;;;;;;5105871;28;20201;-78
2021/04/27 01:03:23;;;;;;;3.70;2.90;;;6.90;42.00;;;;;;5096182;28;20202;-78
2021/04/27 01:05:51;;;;;;;2.80;2.60;;;7.00;42.50;;;;;;5105799;28;20255;-78
2021/04/27 01:08:26;;;;;;;3.60;3.00;;;7.10;42.10;;;;;;5108338;28;20218;-78
2021/04/27 01:11:02;;;;;;;3.13;2.72;;;7.00;42.00;;;;;;5095274;28;20746;-78
2021/04/27 01:13:38;;;;;;;3.85;2.80;;;6.90;42.00;;;;;;5096797;28;20633;-77
2021/04/27 01:16:08;;;;;;;3.53;3.00;;;6.90;42.50;;;;;;5108653;28;20206;-78
2021/04/27 01:18:36;;;;;;;4.30;3.28;;;6.80;42.00;;;;;;5101222;28;20315;-78
2021/04/27 01:21:07;;;;;;;3.00;2.75;;;6.60;42.20;;;;;;5092567;28;20238;-78
2021/04/27 01:23:57;;;;;;;4.25;2.78;;;6.60;42.30;;;;;;5090100;28;20195;-78
2021/04/27 01:26:37;;;;;;;2.65;2.45;;;6.50;42.30;;;;;;5087665;28;20275;-78
2021/04/27 01:29:07;;;;;;;3.78;3.03;;;6.50;42.20;;;;;;5100738;28;20638;-78
2021/04/27 01:31:36;;;;;;;3.63;3.10;;;6.50;42.70;;;;;;5095253;28;20190;-78
2021/04/27 01:34:05;;;;;;;4.05;3.35;;;6.50;42.10;;;;;;5107794;28;20202;-78
2021/04/27 01:36:40;;;;;;;4.78;3.85;;;6.40;42.30;;;;;;5089944;28;20717;-78
2021/04/27 01:39:12;;;;;;;6.47;2.90;;;6.40;42.40;;;;;;5089751;28;20214;-78
2021/04/27 01:41:41;;;;;;;5.15;3.17;;;6.40;42.30;;;;;;5091010;28;20195;-78
2021/04/27 01:44:10;;;;;;;4.03;2.83;;;6.40;42.30;;;;;;5108085;28;20202;-78
2021/04/27 01:46:38;;;;;;;4.85;3.60;;;6.40;42.50;;;;;;5087507;28;20206;-77
2021/04/27 01:49:06;;;;;;;3.92;3.50;;;6.40;42.90;;;;;;5087403;28;20190;-78
2021/04/27 01:51:35;;;;;;;7.15;3.22;;;6.40;42.60;;;;;;5091326;28;20198;-78
2021/04/27 01:54:04;;;;;;;3.42;3.15;;;6.60;42.80;;;;;;5104128;28;20578;-78
2021/04/27 01:56:32;;;;;;;4.88;3.35;;;6.60;43.00;;;;;;5102840;28;20194;-78
2021/04/27 01:59:01;;;;;;;3.75;3.17;;;6.40;42.70;;;;;;5112327;28;20253;-78
2021/04/27 02:01:29;;;;;;;4.85;2.72;;;6.30;42.30;;;;;;5095612;28;20241;-78
2021/04/27 02:03:57;;;;;;;4.43;3.10;;;6.30;42.30;;;;;;5093071;28;20285;-78
2021/04/27 02:06:25;;;;;;;3.80;3.38;;;6.40;42.70;;;;;;5111627;28;20679;-78
2021/04/27 02:09:02;;;;;;;3.65;3.28;;;6.30;42.60;;;;;;5101475;28;20205;-78
2021/04/27 02:11:33;;;;;;;4.15;3.50;;;6.10;42.50;;;;;;5107388;28;20221;-78
2021/04/27 02:14:02;;;;;;;3.00;2.65;;;6.10;42.60;;;;;;5104150;28;20208;-78
2021/04/27 02:16:32;;;;;;;3.35;3.05;;;5.90;42.60;;;;;;5092948;28;20217;-78
2021/04/27 02:19:02;;;;;;;3.10;2.80;;;6.00;42.90;;;;;;5106232;28;20226;-78
2021/04/27 02:21:29;;;;;;;5.65;3.20;;;6.10;42.80;;;;;;5098506;28;20306;-78
2021/04/27 02:23:56;;;;;;;3.88;3.40;;;6.30;43.10;;;;;;5092297;28;20210;-78
2021/04/27 02:26:23;;;;;;;5.10;3.05;;;6.20;42.50;;;;;;5099990;28;20203;-78
2021/04/27 02:28:50;;;;;;;3.10;2.90;;;6.30;42.70;;;;;;5091904;28;20249;-78
2021/04/27 02:31:18;;;;;;;4.57;3.30;;;6.50;42.30;;;;;;5094975;28;20210;-78
2021/04/27 02:33:45;;;;;;;5.18;3.40;;;6.60;42.60;;;;;;5096843;28;20289;-77
2021/04/27 02:36:11;;;;;;;2.85;2.55;;;6.70;42.20;;;;;;5095559;28;20202;-78
2021/04/27 02:38:38;;;;;;;3.90;3.45;;;6.70;42.50;;;;;;5091679;28;20198;-78
2021/04/27 02:41:04;;;;;;;4.88;3.13;;;6.50;42.30;;;;;;5102491;28;20301;-78
2021/04/27 02:43:31;;;;;;;2.92;2.65;;;6.50;42.60;;;;;;5092275;28;20612;-78
2021/04/27 02:45:57;;;;;;;6.05;3.25;;;6.20;43.20;;;;;;5095803;28;20195;-78
2021/04/27 02:48:27;;;;;;;3.88;2.80;;;6.10;43.50;;;;;;5105997;28;20197;-78
2021/04/27 02:50:55;;;;;;;3.17;2.83;;;6.00;43.80;;;;;;5106388;28;20677;-78
2021/04/27 02:53:22;;;;;;;3.42;3.13;;;5.90;44.00;;;;;;5092874;28;20727;-78
2021/04/27 02:55:49;;;;;;;4.65;3.35;;;5.90;44.40;;;;;;5104821;28;20203;-77
2021/04/27 02:58:17;;;;;;;4.18;2.78;;;5.80;45.00;;;;;;5103934;28;20194;-78
2021/04/27 03:00:44;;;;;;;4.47;3.30;;;5.90;45.10;;;;;;5094381;28;20228;-78
2021/04/27 03:03:10;;;;;;;3.00;2.70;;;6.00;45.10;;;;;;5111546;28;20240;-78
2021/04/27 03:05:38;;;;;;;3.60;3.30;;;5.90;44.90;;;;;;5099402;28;20608;-78
2021/04/27 03:08:05;;;;;;;2.80;2.15;;;5.90;44.70;;;;;;5091691;28;20199;-78
2021/04/27 03:10:32;;;;;;;3.35;3.05;;;6.10;44.60;;;;;;5094245;28;20249;-78
2021/04/27 03:12:59;;;;;;;6.00;2.83;;;6.10;44.60;;;;;;5091306;28;20202;-78
2021/04/27 03:15:25;;;;;;;3.88;3.58;;;6.10;44.20;;;;;;5099037;28;20202;-78
2021/04/27 03:17:52;;;;;;;5.55;4.25;;;6.10;44.20;;;;;;5091271;28;20206;-78
2021/04/27 03:20:19;;;;;;;3.10;2.90;;;5.90;45.10;;;;;;5101186;28;20625;-78
2021/04/27 03:22:46;;;;;;;5.60;3.38;;;5.90;44.80;;;;;;5103749;28;20530;-78
2021/04/27 03:25:14;;;;;;;5.20;3.40;;;5.80;45.30;;;;;;5108912;28;20198;-78
2021/04/27 03:27:41;;;;;;;4.82;3.65;;;5.60;45.50;;;;;;5109938;28;20210;-77
2021/04/27 03:30:09;;;;;;;3.80;3.50;;;5.70;46.20;;;;;;5102911;28;20222;-78
2021/04/27 03:32:36;;;;;;;4.30;3.45;;;5.80;46.20;;;;;;5111056;28;20206;-78
2021/04/27 03:35:03;;;;;;;5.20;3.42;;;5.80;45.90;;;;;;5086592;28;20238;-78
2021/04/27 03:37:30;;;;;;;4.00;3.60;;;5.90;45.70;;;;;;5082634;28;20298;-78
2021/04/27 03:39:57;;;;;;;3.90;3.50;;;6.10;46.00;;;;;;5096305;28;20702;-78
2021/04/27 03:42:23;;;;;;;4.25;2.92;;;6.10;46.30;;;;;;5111281;28;20248;-78
2021/04/27 03:44:50;;;;;;;3.63;3.33;;;6.10;45.40;;;;;;5101306;28;20281;-78
2021/04/27 03:47:17;;;;;;;4.10;3.50;;;6.10;46.20;;;;;;5092051;28;20225;-78
2021/04/27 03:49:43;;;;;;;4.35;3.65;;;6.10;45.70;;;;;;5092783;28;20296;-78
2021/04/27 03:52:10;;;;;;;4.70;3.90;;;6.00;46.40;;;;;;5094543;28;20203;-78
2021/04/27 03:54:36;;;;;;;5.93;3.33;;;6.00;46.20;;;;;;5098889;28;20252;-78
2021/04/27 03:57:04;;;;;;;4.03;3.45;;;5.90;46.30;;;;;;5090867;28;20237;-78
2021/04/27 03:59:30;;;;;;;4.70;3.95;;;5.90;46.10;;;;;;5093047;28;20210;-78
2021/04/27 04:01:57;;;;;;;4.97;3.80;;;5.70;46.70;;;;;;5104957;28;20202;-78
2021/04/27 04:04:24;;;;;;;4.45;3.28;;;5.70;46.00;;;;;;5102151;28;20603;-78
2021/04/27 04:06:50;;;;;;;3.40;3.10;;;5.60;46.90;;;;;;5110637;28;20674;-77
2021/04/27 04:09:17;;;;;;;4.22;3.83;;;5.50;46.90;;;;;;5106545;28;20639;-78
2021/04/27 04:11:44;;;;;;;3.88;3.58;;;5.50;47.30;;;;;;5109127;28;20213;-78
2021/04/27 04:14:11;;;;;;;3.17;2.50;;;5.40;46.80;;;;;;5094188;28;20233;-78
2021/04/27 04:16:38;;;;;;;5.43;3.97;;;5.40;48.10;;;;;;5100663;28;20245;-78
2021/04/27 04:19:05;;;;;;;4.60;3.80;;;5.30;47.60;;;;;;5094202;28;20250;-78
2021/04/27 04:21:31;;;;;;;6.40;3.72;;;5.30;47.20;;;;;;5093348;28;20297;-78
2021/04/27 04:23:58;;;;;;;4.05;3.75;;;5.40;47.90;;;;;;5091979;28;20288;-78
2021/04/27 04:26:24;;;;;;;4.13;3.83;;;5.40;47.80;;;;;;5110120;28;20281;-78
2021/04/27 04:28:51;;;;;;;5.50;4.65;;;5.50;47.50;;;;;;5108293;28;20225;-78
2021/04/27 04:31:18;;;;;;;6.68;3.45;;;5.60;47.50;;;;;;5091994;28;20264;-78
2021/04/27 04:33:44;;;;;;;4.28;3.88;;;5.70;47.40;;;;;;5110139;28;20221;-78
2021/04/27 04:36:11;;;;;;;4.07;3.72;;;5.60;47.00;;;;;;5094524;28;20249;-78
2021/04/27 04:38:38;;;;;;;3.20;2.90;;;5.70;46.90;;;;;;5090064;28;20230;-78
2021/04/27 04:41:04;;;;;;;3.53;3.22;;;5.60;47.40;;;;;;5093260;28;20254;-79
2021/04/27 04:43:31;;;;;;;5.25;3.63;;;5.50;47.10;;;;;;5103082;28;20217;-79
2021/04/27 04:45:58;;;;;;;5.13;3.88;;;5.50;46.80;;;;;;5103591;28;20201;-79
2021/04/27 04:48:25;;;;;;;3.53;3.22;;;5.70;46.90;;;;;;5089586;28;20268;-79
2021/04/27 04:50:52;;;;;;;6.47;3.95;;;5.70;47.10;;;;;;5098346;28;20236;-78
2021/04/27 04:53:19;;;;;;;3.42;3.13;;;5.50;47.40;;;;;;5093054;28;20671;-78
2021/04/27 04:55:46;;;;;;;4.60;3.47;;;5.50;47.70;;;;;;5090063;28;20672;-79
2021/04/27 04:58:13;;;;;;;3.95;3.45;;;5.60;47.50;;;;;;5091735;28;20280;-79
2021/04/27 05:00:40;;;;;;;5.47;3.75;;;5.70;46.70;;;;;;5092056;28;20280;-79
2021/04/27 05:03:06;;;;;;;5.70;3.70;;;6.00;46.60;;;;;;5090027;28;20213;-79
2021/04/27 05:05:34;;;;;;;3.70;3.30;;;5.90;46.50;;;;;;5100820;28;20222;-79
2021/04/27 05:08:08;;;;;;;8.40;3.80;;;6.00;46.40;;;;;;5110195;28;20194;-79
2021/04/27 05:10:34;;;;;;;6.13;3.65;;;6.00;46.40;;;;;;5093114;28;20321;-79
2021/04/27 05:13:00;;;;;;;4.47;3.65;;;6.10;46.30;;;;;;5089511;28;20206;-79
2021/04/27 05:15:27;;;;;;;6.30;4.00;;;6.10;46.80;;;;;;5096495;28;20210;-79
2021/04/27 05:17:53;;;;;;;3.72;3.42;;;6.10;46.80;;;;;;5090104;28;20292;-79
2021/04/27 05:20:21;;;;;;;4.85;3.22;;;6.20;47.00;;;;;;5098726;28;20257;-78
2021/04/27 05:22:48;;;;;;;4.78;3.60;;;6.20;46.60;;;;;;5090841;28;20606;-78
2021/04/27 05:25:15;;;;;;;4.72;4.10;;;6.40;46.50;;;;;;5096709;28;20280;-79
2021/04/27 05:27:42;;;;;;;5.15;3.53;;;6.60;46.40;;;;;;5093124;28;20328;-78
2021/04/27 05:30:10;;;;;;;5.45;3.53;;;6.70;46.00;;;;;;5089172;28;20203;-78
2021/04/27 05:32:37;;;;;;;5.53;3.85;;;6.70;45.60;;;;;;5094180;28;20216;-80
2021/04/27 05:35:06;;;;;;;10.52;4.45;;;6.80;45.40;;;;;;5093267;28;20531;-80
2021/04/27 05:37:32;;;;;;;4.55;3.50;;;7.00;45.10;;;;;;5074071;28;20207;-80
2021/04/27 05:40:00;;;;;;;6.43;3.50;;;7.10;45.50;;;;;;5100350;28;20733;-80
2021/04/27 05:42:26;;;;;;;4.32;3.90;;;7.10;45.30;;;;;;5114716;28;20205;-80
2021/04/27 05:44:54;;;;;;;3.70;3.25;;;7.10;45.30;;;;;;5106390;28;20202;-80
2021/04/27 05:47:21;;;;;;;7.53;4.60;;;7.20;45.10;;;;;;5093382;28;20206;-80
2021/04/27 05:49:47;;;;;;;4.47;3.92;;;7.40;44.90;;;;;;5104870;28;20199;-79
2021/04/27 05:52:14;;;;;;;4.38;3.70;;;7.50;44.90;;;;;;5094024;28;20233;-79
2021/04/27 05:54:40;;;;;;;4.82;4.30;;;7.60;44.80;;;;;;5093417;28;20207;-80
2021/04/27 05:57:07;;;;;;;5.60;4.35;;;7.70;44.10;;;;;;5093131;28;20194;-79
2021/04/27 05:59:34;;;;;;;4.93;4.40;;;7.70;44.10;;;;;;5095241;28;20211;-80
2021/04/27 06:02:02;;;;;;;4.55;4.15;;;7.90;44.30;;;;;;5097852;28;20260;-80
2021/04/27 06:04:28;;;;;;;4.95;4.32;;;7.90;44.50;;;;;;5093169;28;20316;-80
2021/04/27 06:06:55;;;;;;;6.18;4.78;;;8.00;44.30;;;;;;5091093;28;20202;-79
2021/04/27 06:09:21;;;;;;;8.88;4.70;;;8.20;43.90;;;;;;5090756;28;20207;-80
2021/04/27 06:11:48;;;;;;;4.50;4.10;;;8.40;43.00;;;;;;5108903;28;20202;-80
2021/04/27 06:14:15;;;;;;;5.07;4.28;;;8.50;42.80;;;;;;5114276;28;20198;-80
2021/04/27 06:16:42;;;;;;;5.50;4.40;;;8.60;42.80;;;;;;5114519;28;20202;-80
2021/04/27 06:19:08;;;;;;;4.68;4.22;;;8.70;42.70;;;;;;5113885;28;20285;-80
2021/04/27 06:21:34;;;;;;;6.38;4.55;;;8.60;42.60;;;;;;5113698;28;20247;-81
2021/04/27 06:24:01;;;;;;;5.95;5.35;;;8.70;42.60;;;;;;5114483;28;20206;-80
2021/04/27 06:26:27;;;;;;;5.28;4.78;;;8.90;42.70;;;;;;5114746;28;20206;-80
2021/04/27 06:28:54;;;;;;;6.20;4.68;;;9.00;42.20;;;;;;5114143;28;20571;-81
2021/04/27 06:31:21;;;;;;;10.30;4.88;;;9.00;42.10;;;;;;5114826;28;20206;-81
2021/04/27 06:33:48;;;;;;;7.55;4.70;;;9.10;41.50;;;;;;5114069;28;20228;-81
2021/04/27 06:36:15;;;;;;;6.13;4.72;;;9.20;41.40;;;;;;5114000;28;20210;-80
2021/04/27 06:38:41;;;;;;;6.60;5.72;;;9.20;41.70;;;;;;5114631;28;20201;-80
2021/04/27 06:41:08;;;;;;;8.90;5.07;;;9.40;41.80;;;;;;5114860;28;20316;-80
2021/04/27 06:43:35;;;;;;;5.90;4.97;;;9.40;41.30;;;;;;5115022;28;20235;-80
2021/04/27 06:46:02;;;;;;;9.50;4.88;;;9.30;41.10;;;;;;5114920;28;20658;-81
2021/04/27 06:48:33;;;;;;;7.18;5.72;;;9.40;41.60;;;;;;5114655;28;20304;-80
2021/04/27 06:50:59;;;;;;;5.82;5.28;;;9.50;41.40;;;;;;5113716;28;20194;-80
2021/04/27 06:53:25;;;;;;;7.95;6.00;;;9.70;41.60;;;;;;5113654;28;20225;-80
2021/04/27 06:55:52;;;;;;;5.53;5.03;;;9.80;41.40;;;;;;5113618;28;20312;-80
2021/04/27 06:58:18;;;;;;;5.55;4.80;;;9.90;41.50;;;;;;5114221;28;20292;-81
2021/04/27 07:00:45;;;;;;;6.85;5.05;;;9.80;41.90;;;;;;5100746;28;20707;-80
2021/04/27 07:03:12;;;;;;;6.00;4.53;;;10.00;40.80;;;;;;5093170;28;20814;-79
2021/04/27 07:05:44;;;;;;;6.22;5.07;;;9.30;41.50;;;;;;5093382;28;20206;-80
2021/04/27 07:08:12;;;;;;;6.03;5.22;;;8.70;42.00;;;;;;5092515;28;20206;-80
2021/04/27 07:10:38;;;;;;;8.00;5.68;;;8.50;43.10;;;;;;5092977;28;20201;-80
2021/04/27 07:13:05;;;;;;;10.80;6.05;;;8.60;43.00;;;;;;5092555;28;20202;-80
2021/04/27 07:15:32;;;;;;;6.82;4.95;;;8.60;43.10;;;;;;5092265;28;20238;-80
2021/04/27 07:17:59;;;;;;;6.53;5.40;;;8.50;43.30;;;;;;5093378;28;20214;-80
2021/04/27 07:20:26;;;;;;;7.65;5.78;;;8.60;43.60;;;;;;5093385;28;20319;-80
2021/04/27 07:22:53;;;;;;;8.32;5.60;;;8.90;43.70;;;;;;5092909;28;20244;-81
2021/04/27 07:25:19;;;;;;;7.88;4.47;;;9.30;43.70;;;;;;5093809;28;20288;-80
2021/04/27 07:27:46;;;;;;;5.60;4.97;;;9.20;42.60;;;;;;5111230;28;20706;-81
2021/04/27 07:30:14;;;;;;;10.73;5.80;;;9.10;42.50;;;;;;5102339;28;20194;-80
2021/04/27 07:32:40;;;;;;;6.25;5.38;;;8.70;42.90;;;;;;5104441;28;20256;-80
2021/04/27 07:35:08;;;;;;;5.85;5.10;;;8.60;43.50;;;;;;5096629;28;20206;-80
2021/04/27 07:37:36;;;;;;;6.13;5.53;;;8.90;43.90;;;;;;5099564;28;20208;-80
2021/04/27 07:40:05;;;;;;;5.72;4.40;;;9.10;42.80;;;;;;5094430;28;20215;-80
2021/04/27 07:42:32;;;;;;;5.60;5.15;;;8.50;42.70;;;;;;5105935;28;20225;-80
2021/04/27 07:44:58;;;;;;;8.52;5.93;;;8.60;43.00;;;;;;5093348;28;20202;-80
2021/04/27 07:47:25;;;;;;;8.40;5.25;;;9.00;43.30;;;;;;5089791;28;20203;-80
2021/04/27 07:49:51;;;;;;;6.95;6.35;;;9.00;42.90;;;;;;5090566;28;20207;-81
2021/04/27 07:52:18;;;;;;;8.25;6.20;;;9.10;42.80;;;;;;5097579;28;20194;-80
2021/04/27 07:54:45;;;;;;;6.00;5.40;;;9.60;43.40;;;;;;5101609;28;20226;-80
2021/04/27 07:57:13;;;;;;;6.45;5.55;;;9.90;42.70;;;;;;5091728;28;20205;-80
2021/04/27 07:59:40;;;;;;;17.65;7.68;;;10.00;41.60;;;;;;5097825;28;20317;-80
2021/04/27 08:02:06;;;;;;;7.38;6.68;;;10.40;41.80;;;;;;5090852;28;20214;-80
2021/04/27 08:04:33;;;;;;;7.43;5.80;;;10.30;40.40;;;;;;5091024;28;20186;-80
2021/04/27 08:06:59;;;;;;;10.27;6.10;;;10.60;41.10;;;;;;5090843;28;20205;-80
2021/04/27 08:09:26;;;;;;;6.63;5.85;;;10.50;40.60;;;;;;5090874;28;20202;-80
2021/04/27 08:11:53;;;;;;;6.78;5.95;;;10.30;40.40;;;;;;5091114;28;20206;-81
2021/04/27 08:14:21;;;;;;;8.05;5.70;;;10.60;41.00;;;;;;5090724;28;20206;-80
2021/04/27 08:16:48;;;;;;;11.73;7.15;;;10.40;40.60;;;;;;5090793;28;20232;-80
2021/04/27 08:19:14;;;;;;;8.63;5.72;;;9.90;41.60;;;;;;5090730;28;20202;-81
2021/04/27 08:21:41;;;;;;;10.13;7.05;;;9.90;42.10;;;;;;5091027;28;20202;-81
2021/04/27 08:24:08;;;;;;;7.22;6.10;;;10.30;42.00;;;;;;5090947;28;20234;-81
2021/04/27 08:26:35;;;;;;;6.28;5.45;;;10.40;40.90;;;;;;5090434;28;20226;-80
2021/04/27 08:29:03;;;;;;;7.63;5.90;;;10.30;40.80;;;;;;5090437;28;20211;-80
2021/04/27 08:31:31;;;;;;;7.07;6.38;;;10.40;41.50;;;;;;5090759;28;20191;-80
2021/04/27 08:33:59;;;;;;;6.95;5.88;;;10.80;40.90;;;;;;5090297;28;20691;-81
2021/04/27 08:36:26;;;;;;;8.10;5.75;;;10.90;40.30;;;;;;5090802;28;20203;-80
2021/04/27 08:38:52;;;;;;;7.25;6.55;;;11.00;40.60;;;;;;5090634;28;20616;-80
2021/04/27 08:41:22;;;;;;;14.02;6.03;;;10.80;39.90;;;;;;5090397;28;20214;-81
2021/04/27 08:43:49;;;;;;;8.40;6.35;;;10.70;40.30;;;;;;5090602;28;20260;-79
2021/04/27 08:46:15;;;;;;;8.25;6.63;;;10.60;40.20;;;;;;5090796;28;20205;-80
2021/04/27 08:48:43;;;;;;;10.70;6.95;;;11.00;41.10;;;;;;5090146;28;20204;-80
2021/04/27 08:51:12;;;;;;;8.80;6.57;;;11.60;41.10;;;;;;5090694;28;20199;-80
2021/04/27 08:53:39;;;;;;;9.55;6.65;;;11.80;40.20;;;;;;5103051;28;20201;-81
2021/04/27 08:56:06;;;;;;;8.45;5.95;;;12.20;39.50;;;;;;5101430;28;20194;-81
2021/04/27 08:58:33;;;;;;;8.88;6.50;;;12.20;39.10;;;;;;5092686;28;20198;-81
2021/04/27 09:00:59;;;;;;;6.78;5.88;;;12.20;39.80;;;;;;5093949;28;20218;-82
2021/04/27 09:03:41;;;;;;;10.90;6.60;;;12.20;39.40;;;;;;5094690;28;20198;-81
2021/04/27 09:06:17;;;;;;;7.22;6.47;;;12.10;38.40;;;;;;5094539;28;20600;-81
2021/04/27 09:08:44;;;;;;;10.40;6.63;;;12.30;38.90;;;;;;5094454;28;20201;-81
2021/04/27 09:11:30;;;;;;;7.67;6.87;;;12.50;39.80;;;;;;5094286;28;20654;-83
2021/04/27 09:14:17;;;;;;;8.57;7.17;;;13.00;39.40;;;;;;5094261;28;20616;-81
2021/04/27 09:16:50;;;;;;;7.20;6.27;;;13.40;38.50;;;;;;5093725;28;20642;-82
2021/04/27 09:19:32;;;;;;;9.43;7.37;;;13.70;37.80;;;;;;5093463;28;20623;-82
2021/04/27 09:22:05;;;;;;;10.73;6.80;;;13.90;37.80;;;;;;5093343;28;20607;-82
2021/04/27 09:24:35;;;;;;;7.67;6.50;;;13.90;37.50;;;;;;5101966;28;20619;-82
2021/04/27 09:27:02;;;;;;;7.93;6.70;;;13.90;36.90;;;;;;5101549;28;20621;-82
2021/04/27 09:29:35;;;;;;;12.73;6.73;;;13.90;37.10;;;;;;5110251;28;20630;-81
2021/04/27 09:32:02;;;;;;;8.47;7.53;;;13.70;36.80;;;;;;5081453;28;20685;-83
2021/04/27 09:34:30;;;;;;;8.60;7.07;;;13.80;38.10;;;;;;5106433;28;21045;-82
2021/04/27 09:36:58;;;;;;;9.50;7.47;;;14.10;37.90;;;;;;5101215;28;20676;-82
2021/04/27 09:39:34;;;;;;;9.23;6.60;;;14.00;37.00;;;;;;5113479;28;20962;-82
2021/04/27 09:42:10;;;;;;;11.13;7.47;;;13.70;37.80;;;;;;5112634;28;21245;-81
2021/04/27 09:44:42;;;;;;;9.20;7.23;;;13.50;37.20;;;;;;5114025;28;20626;-82
2021/04/27 09:47:16;;;;;;;10.27;6.90;;;13.50;37.90;;;;;;5114173;28;20611;-81
2021/04/27 09:49:55;;;;;;;10.70;7.60;;;14.10;39.00;;;;;;5113205;28;20619;-83
2021/04/27 09:52:22;;;;;;;8.70;7.80;;;14.50;38.00;;;;;;5114016;28;20611;-81
2021/04/27 09:55:08;;;;;;;8.47;7.37;;;14.60;36.60;;;;;;5113711;28;21025;-82
2021/04/27 09:57:36;;;;;;;8.83;7.73;;;14.70;36.70;;;;;;5113782;28;20630;-82
2021/04/27 10:00:28;;;;;;;9.60;7.77;;;14.80;37.40;;;;;;5105634;28;20648;-81
2021/04/27 10:02:56;;;;;;;8.00;7.30;;;14.60;36.30;;;;;;5092340;28;20639;-81
2021/04/27 10:05:23;;;;;;;11.40;7.60;;;14.30;36.60;;;;;;5093628;28;20616;-82
2021/04/27 10:07:50;;;;;;;10.40;7.70;;;14.40;38.70;;;;;;5092947;28;20604;-82
2021/04/27 10:10:19;;;;;;;8.57;7.27;;;14.70;37.50;;;;;;5092520;28;20635;-81
2021/04/27 10:12:47;;;;;;;9.63;7.53;;;14.20;36.30;;;;;;5092758;28;20642;-82
2021/04/27 10:15:15;;;;;;;13.83;7.53;;;14.60;39.10;;;;;;5092645;28;20648;-82
2021/04/27 10:17:42;;;;;;;8.30;7.50;;;15.20;38.20;;;;;;5093170;28;20620;-82
2021/04/27 10:20:13;;;;;;;10.40;7.93;;;15.50;37.50;;;;;;5091900;28;20664;-82
2021/04/27 10:22:41;;;;;;;8.53;6.97;;;15.90;36.10;;;;;;5092820;28;20628;-82
2021/04/27 10:25:12;;;;;;;9.10;7.90;;;16.20;36.50;;;;;;5092578;28;20661;-82
2021/04/27 10:27:52;;;;;;;9.10;7.77;;;16.30;35.40;;;;;;5092866;28;20635;-84
2021/04/27 10:30:33;;;;;;;9.73;8.27;;;16.40;36.00;;;;;;5092134;28;20659;-83
2021/04/27 10:33:20;;;;;;;12.77;8.10;;;16.50;34.50;;;;;;5092806;28;20608;-82
2021/04/27 10:36:06;;;;;;;8.63;7.93;;;16.60;35.60;;;;;;5092438;28;20610;-82
2021/04/27 10:38:50;;;;;;;10.80;8.73;;;17.00;34.90;;;;;;5092589;28;20991;-83
2021/04/27 10:41:21;;;;;;;9.93;8.60;;;17.00;35.10;;;;;;5090564;28;21256;-80
2021/04/27 10:44:00;;;;;;;14.93;8.50;;;17.00;34.80;;;;;;5092792;28;20618;-80
2021/04/27 10:46:55;;;;;;;11.07;7.60;;;16.60;35.20;;;;;;5092703;28;20612;-81
2021/04/27 10:49:37;;;;;;;12.20;8.40;;;16.50;35.30;;;;;;5092289;28;20623;-80
2021/04/27 10:52:06;;;;;;;13.83;10.10;;;16.30;35.30;;;;;;5089511;28;20640;-81
2021/04/27 10:54:35;;;;;;;10.63;8.90;;;15.70;34.70;;;;;;5092109;28;20654;-81
2021/04/27 10:57:17;;;;;;;8.53;7.73;;;15.80;35.20;;;;;;5092370;28;20617;-80
2021/04/27 11:00:07;;;;;;;7.83;7.03;;;15.70;35.50;;;;;;5091843;28;20758;-81
2021/04/27 11:02:33;;;;;;;8.87;7.97;;;16.00;35.90;;;;;;5085431;28;20752;-82
2021/04/27 11:05:01;;;;;;;10.43;9.13;;;16.50;36.30;;;;;;5091939;28;20618;-83
2021/04/27 11:07:40;;;;;;;11.37;8.93;;;16.90;34.70;;;;;;5092565;28;21002;-82
2021/04/27 11:10:42;;;;;;;10.20;8.60;;;17.30;32.90;;;;;;5092112;28;20661;-83
2021/04/27 11:13:09;;;;;;;15.30;7.70;;;17.70;32.20;;;;;;5092163;28;21163;-82
2021/04/27 11:15:38;;;;;;;9.43;8.43;;;18.10;31.70;;;;;;5091877;28;20627;-83
2021/04/27 11:18:15;;;;;;;10.50;8.93;;;18.40;32.40;;;;;;5093128;28;20663;-82
2021/04/27 11:20:47;;;;;;;9.63;8.63;;;18.60;32.00;;;;;;5109773;28;20658;-82
2021/04/27 11:23:36;;;;;;;14.23;8.33;;;18.80;31.80;;;;;;5112149;28;20623;-82
2021/04/27 11:26:04;;;;;;;10.30;8.70;;;19.10;32.50;;;;;;5111539;28;20663;-83
2021/04/27 11:28:55;;;;;;;10.20;8.37;;;19.40;32.10;;;;;;5112102;28;20595;-82
2021/04/27 11:31:22;;;;;;;10.17;8.50;;;19.80;30.90;;;;;;5111992;28;20637;-83
2021/04/27 11:34:05;;;;;;;10.00;9.00;;;20.30;29.70;;;;;;5112053;28;20630;-83
2021/04/27 11:36:34;;;;;;;9.10;8.20;;;20.70;28.20;;;;;;5111964;28;20615;-82
2021/04/27 11:39:10;;;;;;;9.13;8.23;;;20.60;28.80;;;;;;5111077;28;20607;-81
2021/04/27 11:41:46;;;;;;;11.87;8.37;;;20.70;29.80;;;;;;5110530;28;20724;-83
2021/04/27 11:44:14;;;;;;;10.00;9.00;;;22.20;28.70;;;;;;5107310;28;20613;-83
2021/04/27 11:46:58;;;;;;;9.63;7.90;;;23.30;28.70;;;;;;5090915;28;20661;-82
2021/04/27 11:49:50;;;;;;;10.60;9.60;;;23.60;29.10;;;;;;5091293;28;20984;-82
2021/04/27 11:52:31;;;;;;;8.80;8.00;;;24.70;28.60;;;;;;5090683;28;20623;-82
2021/04/27 11:54:58;;;;;;;10.40;9.50;;;24.90;27.50;;;;;;5109389;28;21520;-83
2021/04/27 11:57:25;;;;;;;8.93;8.10;;;26.30;27.10;;;;;;5111647;28;20664;-84
2021/04/27 11:59:59;;;;;;;9.13;8.33;;;27.50;26.10;;;;;;5105754;28;20683;-83
2021/04/27 12:02:31;;;;;;;10.10;9.20;;;28.40;24.80;;;;;;5090884;28;20675;-83
2021/04/27 12:04:58;;;;;;;9.57;8.77;;;29.90;24.30;;;;;;5090971;28;20658;-84
2021/04/27 12:07:27;;;;;;;9.50;8.70;;;31.40;24.20;;;;;;5090746;28;20620;-83
2021/04/27 12:09:55;;;;;;;9.97;9.07;;;33.40;22.30;;;;;;5090903;28;20660;-84
2021/04/27 12:12:23;;;;;;;8.37;7.60;;;34.20;21.60;;;;;;5090891;28;20670;-84
2021/04/27 12:14:50;;;;;;;9.13;8.43;;;35.10;21.50;;;;;;5090791;28;21238;-85
2021/04/27 12:17:25;;;;;;;9.40;8.60;;;36.70;20.70;;;;;;5109924;28;20619;-84
2021/04/27 12:20:05;;;;;;;9.23;8.33;;;38.60;19.90;;;;;;5110363;28;20652;-85
2021/04/27 12:22:32;;;;;;;10.03;8.67;;;39.40;19.40;;;;;;5110915;28;20612;-85
2021/04/27 12:24:59;;;;;;;10.00;9.20;;;39.10;19.20;;;;;;5093704;28;20938;-84
2021/04/27 12:27:26;;;;;;;11.40;10.40;;;37.50;18.90;;;;;;5100859;28;20605;-83
2021/04/27 12:29:57;;;;;;;8.80;8.10;;;38.10;18.70;;;;;;5106872;28;20688;-85
2021/04/27 12:32:26;;;;;;;9.83;8.93;;;38.10;20.20;;;;;;5089528;28;20621;-84
2021/04/27 12:34:55;;;;;;;10.33;9.13;;;37.30;19.70;;;;;;5100849;28;20624;-83
2021/04/27 12:37:24;;;;;;;9.10;8.20;;;39.00;19.10;;;;;;5096738;28;20625;-82
2021/04/27 12:39:51;;;;;;;9.33;8.63;;;39.60;18.80;;;;;;5107410;28;20607;-82
2021/04/27 12:42:20;;;;;;;9.07;8.37;;;40.00;18.80;;;;;;5096297;28;20740;-81
2021/04/27 12:44:55;;;;;;;8.80;7.90;;;37.40;18.00;;;;;;5099952;28;20621;-83
2021/04/27 12:47:24;;;;;;;8.70;7.90;;;38.10;19.10;;;;;;5090665;28;20596;-83
2021/04/27 12:50:01;;;;;;;9.57;8.87;;;38.90;18.70;;;;;;5094992;28;20616;-81
2021/04/27 12:52:30;;;;;;;9.47;8.47;;;39.70;18.60;;;;;;5104531;28;20608;-82
2021/04/27 12:54:59;;;;;;;9.70;8.80;;;39.90;18.50;;;;;;5101838;28;20626;-82
2021/04/27 12:57:26;;;;;;;8.93;8.23;;;40.40;18.30;;;;;;5095422;28;21215;-81
2021/04/27 12:59:59;;;;;;;9.40;8.50;;;41.30;17.80;;;;;;5106555;28;20612;-81
2021/04/27 13:02:26;;;;;;;9.00;8.27;;;38.90;17.60;;;;;;5103526;28;20624;-81